createdAt,value
2022-10-12T00:00:13.210Z,14.93
2022-10-12T00:02:42.172Z,8.37
2022-10-12T00:05:10.201Z,14.43
2022-10-12T00:07:40.077Z,11.27
2022-10-12T00:10:08.750Z,11.93
2022-10-12T00:12:36.543Z,12.70
2022-10-12T00:15:04.765Z,11.90
2022-10-12T00:17:32.583Z,12.83
2022-10-12T00:20:00.420Z,9.80
2022-10-12T00:22:28.236Z,9.47
2022-10-12T00:24:57.324Z,10.53
2022-10-12T00:27:25.088Z,10.93
2022-10-12T00:29:52.856Z,10.47
2022-10-12T00:32:20.719Z,13.23
2022-10-12T00:34:48.507Z,13.70
2022-10-12T00:37:16.248Z,10.07
2022-10-12T00:39:44.012Z,10.07
2022-10-12T00:42:13.972Z,14.37
2022-10-12T00:44:44.335Z,14.17
2022-10-12T00:47:25.246Z,11.33
2022-10-12T00:49:58.733Z,10.70
2022-10-12T00:52:32.402Z,9.67
2022-10-12T00:55:01.943Z,10.67
2022-10-12T00:57:31.208Z,10.37
2022-10-12T01:00:03.356Z,13.33
2022-10-12T01:02:33.868Z,8.70
2022-10-12T01:05:02.488Z,11.33
2022-10-12T01:07:30.256Z,9.10
2022-10-12T01:09:58.185Z,12.30
2022-10-12T01:12:26.336Z,12.53
2022-10-12T01:14:55.829Z,12.17
2022-10-12T01:17:35.866Z,13.23
2022-10-12T01:20:45.079Z,11.97
2022-10-12T01:23:57.401Z,11.03
2022-10-12T01:26:47.045Z,11.77
2022-10-12T01:29:33.006Z,13.67
2022-10-12T01:32:07.707Z,12.53
2022-10-12T01:34:44.987Z,9.40
2022-10-12T01:37:20.263Z,11.43
2022-10-12T01:39:53.214Z,12.73
2022-10-12T01:42:25.536Z,10.00
2022-10-12T01:45:02.454Z,11.03
2022-10-12T01:47:32.008Z,11.00
2022-10-12T01:50:01.091Z,11.23
2022-10-12T01:52:30.631Z,10.30
2022-10-12T01:55:09.152Z,10.43
2022-10-12T01:57:46.768Z,10.60
2022-10-12T02:00:16.990Z,10.70
2022-10-12T02:03:00.153Z,10.67
2022-10-12T02:05:36.809Z,13.77
2022-10-12T02:08:11.490Z,10.70
2022-10-12T02:10:45.277Z,11.77
2022-10-12T02:13:16.109Z,11.93
2022-10-12T02:15:45.815Z,7.97
2022-10-12T02:18:18.460Z,11.80
2022-10-12T02:20:48.083Z,11.70
2022-10-12T02:23:17.631Z,10.70
2022-10-12T02:25:47.204Z,8.20
2022-10-12T02:28:19.492Z,10.50
2022-10-12T02:30:53.421Z,9.57
2022-10-12T02:33:26.718Z,11.17
2022-10-12T02:36:00.142Z,10.50
2022-10-12T02:38:32.920Z,12.17
2022-10-12T02:41:06.448Z,10.47
2022-10-12T02:43:38.903Z,10.53
2022-10-12T02:46:09.373Z,12.10
2022-10-12T02:48:41.384Z,12.13
2022-10-12T02:51:10.487Z,9.90
2022-10-12T02:53:38.868Z,11.90
2022-10-12T02:56:11.164Z,11.63
2022-10-12T02:58:38.956Z,9.63
2022-10-12T03:01:06.854Z,11.63
2022-10-12T03:03:34.608Z,11.90
2022-10-12T03:06:03.804Z,9.67
2022-10-12T03:08:31.883Z,9.70
2022-10-12T03:11:02.424Z,10.13
2022-10-12T03:13:30.405Z,12.60
2022-10-12T03:16:03.448Z,10.40
2022-10-12T03:18:31.399Z,12.50
2022-10-12T03:20:59.319Z,11.30
2022-10-12T03:23:28.587Z,9.93
2022-10-12T03:25:56.324Z,12.97
2022-10-12T03:28:24.177Z,8.83
2022-10-12T03:30:51.975Z,9.23
2022-10-12T03:33:20.117Z,11.60
2022-10-12T03:35:48.532Z,12.13
2022-10-12T03:38:16.772Z,9.60
2022-10-12T03:40:47.057Z,7.97
2022-10-12T03:43:15.221Z,10.93
2022-10-12T03:45:43.191Z,11.27
2022-10-12T03:48:11.167Z,12.73
2022-10-12T03:50:40.075Z,11.67
2022-10-12T03:53:08.248Z,9.90
2022-10-12T03:55:36.024Z,12.13
2022-10-12T03:58:05.184Z,10.73
2022-10-12T04:00:32.984Z,12.17
2022-10-12T04:03:02.114Z,8.83
2022-10-12T04:05:29.959Z,9.27
2022-10-12T04:07:57.941Z,10.17
2022-10-12T04:10:25.968Z,11.17
2022-10-12T04:12:53.748Z,14.27
2022-10-12T04:17:55.586Z,11.57
2022-10-12T04:20:23.362Z,11.93
2022-10-12T04:22:51.133Z,11.80
2022-10-12T04:25:18.988Z,12.10
2022-10-12T04:27:46.741Z,10.20
2022-10-12T04:30:14.791Z,14.33
2022-10-12T04:32:43.947Z,9.13
2022-10-12T04:35:12.164Z,10.17
2022-10-12T04:37:40.076Z,12.03
2022-10-12T04:40:09.349Z,10.73
2022-10-12T04:42:37.128Z,13.17
2022-10-12T04:45:05.499Z,11.27
2022-10-12T04:47:35.758Z,9.60
2022-10-12T04:50:05.649Z,10.53
2022-10-12T04:52:33.498Z,11.70
2022-10-12T04:55:01.465Z,10.83
2022-10-12T04:57:29.255Z,10.83
2022-10-12T04:59:57.030Z,13.43
2022-10-12T05:02:24.806Z,11.30
2022-10-12T05:04:52.750Z,13.53
2022-10-12T05:07:21.842Z,11.80
2022-10-12T05:09:49.584Z,10.27
2022-10-12T05:12:18.150Z,13.43
2022-10-12T05:14:45.922Z,12.77
2022-10-12T05:17:13.710Z,12.80
2022-10-12T05:19:41.475Z,13.10
2022-10-12T05:22:09.348Z,15.20
2022-10-12T05:24:38.544Z,13.97
2022-10-12T05:27:06.289Z,12.67
2022-10-12T05:29:34.061Z,12.50
2022-10-12T05:32:01.900Z,11.03
2022-10-12T05:34:29.711Z,13.17
2022-10-12T05:36:58.215Z,11.47
2022-10-12T05:39:26.088Z,12.40
2022-10-12T05:41:55.846Z,15.77
2022-10-12T05:44:23.662Z,12.83
2022-10-12T05:46:51.437Z,14.87
2022-10-12T05:49:19.200Z,13.00
2022-10-12T05:51:46.975Z,11.93
2022-10-12T05:54:14.759Z,15.17
2022-10-12T05:56:42.566Z,15.67
2022-10-12T05:59:11.716Z,12.77
2022-10-12T06:01:39.555Z,13.13
2022-10-12T06:04:07.342Z,11.37
2022-10-12T06:06:35.106Z,14.77
2022-10-12T06:09:02.976Z,14.37
2022-10-12T06:11:34.021Z,11.90
2022-10-12T06:14:04.133Z,9.83
2022-10-12T06:16:33.258Z,11.10
2022-10-12T06:19:01.216Z,13.03
2022-10-12T06:21:33.606Z,12.30
2022-10-12T06:24:02.268Z,12.73
2022-10-12T06:26:30.096Z,12.53
2022-10-12T06:28:57.958Z,11.70
2022-10-12T06:31:25.816Z,13.23
2022-10-12T06:33:54.946Z,16.40
2022-10-12T06:36:23.634Z,16.37
2022-10-12T06:38:51.524Z,16.07
2022-10-12T06:41:19.332Z,15.70
2022-10-12T06:43:47.044Z,16.67
2022-10-12T06:46:14.812Z,14.70
2022-10-12T06:48:42.574Z,15.57
2022-10-12T06:51:11.646Z,16.67
2022-10-12T06:53:39.406Z,13.23
2022-10-12T06:56:07.745Z,19.17
2022-10-12T06:58:35.571Z,22.37
2022-10-12T07:01:05.321Z,13.43
2022-10-12T07:03:33.502Z,14.33
2022-10-12T07:06:07.472Z,14.70
2022-10-12T07:08:36.683Z,17.53
2022-10-12T07:11:06.200Z,14.90
2022-10-12T07:13:34.643Z,14.57
2022-10-12T07:16:02.637Z,14.90
2022-10-12T07:18:30.391Z,19.73
2022-10-12T07:20:59.577Z,15.27
2022-10-12T07:23:27.687Z,16.67
2022-10-12T07:25:56.832Z,20.43
2022-10-12T07:28:24.879Z,18.73
2022-10-12T07:30:53.199Z,16.10
2022-10-12T07:33:21.070Z,18.17
2022-10-12T07:36:13.157Z,17.97
2022-10-12T07:38:44.359Z,16.30
2022-10-12T07:41:14.372Z,19.97
2022-10-12T07:43:42.849Z,18.30
2022-10-12T07:46:11.203Z,20.20
2022-10-12T07:48:44.510Z,17.63
2022-10-12T07:51:16.831Z,22.73
2022-10-12T07:53:44.636Z,15.30
2022-10-12T07:56:15.939Z,16.43
2022-10-12T07:58:43.995Z,14.50
2022-10-12T08:01:11.755Z,18.27
2022-10-12T08:03:39.500Z,17.87
2022-10-12T08:06:11.534Z,17.60
2022-10-12T08:08:39.565Z,21.17
2022-10-12T08:11:08.498Z,16.13
2022-10-12T08:13:38.318Z,24.17
2022-10-12T08:16:09.009Z,19.60
2022-10-12T08:18:36.785Z,16.83
2022-10-12T08:21:05.700Z,20.73
2022-10-12T08:23:34.700Z,18.23
2022-10-12T08:26:02.927Z,17.00
2022-10-12T08:28:31.095Z,20.63
2022-10-12T08:31:00.889Z,16.13
2022-10-12T08:33:30.640Z,18.07
2022-10-12T08:36:03.003Z,16.80
2022-10-12T08:38:31.266Z,16.33
2022-10-12T08:41:05.870Z,17.37
2022-10-12T08:43:45.516Z,18.87
2022-10-12T08:46:14.710Z,17.27
2022-10-12T08:48:48.827Z,15.87
2022-10-12T08:51:22.012Z,18.77
2022-10-12T08:53:55.375Z,18.73
2022-10-12T08:56:23.888Z,16.47
2022-10-12T08:58:53.770Z,19.90
2022-10-12T09:01:30.435Z,18.27
2022-10-12T09:04:17.949Z,18.33
2022-10-12T09:06:50.223Z,21.47
2022-10-12T09:09:43.959Z,16.80
2022-10-12T09:12:27.323Z,16.87
2022-10-12T09:15:00.363Z,20.47
2022-10-12T09:17:38.244Z,14.53
2022-10-12T09:20:16.633Z,18.20
2022-10-12T09:22:48.627Z,18.23
2022-10-12T09:25:23.572Z,14.47
2022-10-12T09:27:52.147Z,20.37
2022-10-12T09:30:21.837Z,15.10
2022-10-12T09:33:13.943Z,17.43
2022-10-12T09:35:42.784Z,14.13
2022-10-12T09:38:11.840Z,17.87
2022-10-12T09:40:40.380Z,14.70
2022-10-12T09:43:08.796Z,14.77
2022-10-12T09:45:38.231Z,12.20
2022-10-12T09:48:16.422Z,10.07
2022-10-12T09:50:48.607Z,14.67
2022-10-12T09:53:28.243Z,15.00
2022-10-12T09:55:59.646Z,14.67
2022-10-12T09:58:28.901Z,13.50
2022-10-12T10:01:13.361Z,13.17
2022-10-12T10:03:42.795Z,13.60
2022-10-12T10:06:10.561Z,24.93
2022-10-12T10:08:43.476Z,15.10
2022-10-12T10:11:22.327Z,13.87
2022-10-12T10:13:53.103Z,14.30
2022-10-12T10:16:23.190Z,15.17
2022-10-12T10:18:57.532Z,14.30
2022-10-12T10:21:28.688Z,16.63
2022-10-12T10:23:58.808Z,10.90
2022-10-12T10:26:28.924Z,14.70
2022-10-12T10:29:15.316Z,13.50
2022-10-12T10:31:45.933Z,13.07
2022-10-12T10:34:22.980Z,20.63
2022-10-12T10:36:52.492Z,11.93
2022-10-12T10:39:23.797Z,13.97
2022-10-12T10:41:53.253Z,13.40
2022-10-12T10:44:27.027Z,16.53
2022-10-12T10:46:56.096Z,13.73
2022-10-12T10:49:34.044Z,16.80
2022-10-12T10:52:03.954Z,15.83
2022-10-12T10:54:34.454Z,20.97
2022-10-12T10:57:05.188Z,13.07
2022-10-12T10:59:48.033Z,16.83
2022-10-12T11:02:21.964Z,15.80
2022-10-12T11:04:54.964Z,17.13
2022-10-12T11:07:28.729Z,11.83
2022-10-12T11:09:59.513Z,10.23
2022-10-12T11:12:31.767Z,11.60
2022-10-12T11:15:07.016Z,14.87
2022-10-12T11:17:38.155Z,17.43
2022-10-12T11:20:35.010Z,12.90
2022-10-12T11:23:05.834Z,15.57
2022-10-12T11:25:40.428Z,13.23
2022-10-12T11:28:09.287Z,16.03
2022-10-12T11:30:41.781Z,13.70
2022-10-12T11:33:15.171Z,15.60
2022-10-12T11:35:46.406Z,17.00
2022-10-12T11:38:21.212Z,15.00
2022-10-12T11:41:13.791Z,18.73
2022-10-12T11:43:47.380Z,14.07
2022-10-12T11:46:19.930Z,14.10
2022-10-12T11:48:52.760Z,11.57
2022-10-12T11:51:21.899Z,10.13
2022-10-12T11:53:55.906Z,14.63
2022-10-12T11:56:28.674Z,17.73
2022-10-12T11:59:03.776Z,15.17
2022-10-12T12:01:44.219Z,16.00
2022-10-12T12:07:44.393Z,14.40
2022-10-12T12:10:54.771Z,16.43
2022-10-12T12:13:26.971Z,17.57
2022-10-12T12:16:32.594Z,15.97
2022-10-12T12:19:37.699Z,15.03
2022-10-12T12:22:18.044Z,15.23
2022-10-12T12:25:06.801Z,14.13
2022-10-12T12:27:38.293Z,15.10
2022-10-12T12:30:22.248Z,15.23
2022-10-12T12:32:53.459Z,12.37
2022-10-12T12:35:25.344Z,18.57
2022-10-12T12:38:08.208Z,15.93
2022-10-12T12:40:37.860Z,16.60
2022-10-12T12:43:35.145Z,14.47
2022-10-12T12:46:11.809Z,12.50
2022-10-12T12:49:01.922Z,14.17
2022-10-12T12:51:41.707Z,10.60
2022-10-12T12:54:17.344Z,11.53
2022-10-12T12:57:01.917Z,12.53
2022-10-12T13:00:06.690Z,15.27
2022-10-12T13:03:11.462Z,14.33
2022-10-12T13:06:18.101Z,13.57
2022-10-12T13:09:14.380Z,17.17
2022-10-12T13:11:55.350Z,13.47
2022-10-12T13:14:42.168Z,11.70
2022-10-12T13:17:34.381Z,15.43
2022-10-12T13:20:08.274Z,19.33
2022-10-12T13:22:36.343Z,25.10
2022-10-12T13:25:08.541Z,14.63
2022-10-12T13:27:46.068Z,14.73
2022-10-12T13:30:21.763Z,18.80
2022-10-12T13:32:57.012Z,14.23
2022-10-12T13:35:32.435Z,14.20
2022-10-12T13:38:05.819Z,11.10
2022-10-12T13:40:39.401Z,13.70
2022-10-12T13:43:29.875Z,10.83
2022-10-12T13:45:57.849Z,12.77
2022-10-12T13:48:53.734Z,14.63
2022-10-12T13:51:24.008Z,17.43
2022-10-12T13:53:51.963Z,16.70
2022-10-12T13:56:21.867Z,13.27
2022-10-12T13:58:54.687Z,16.13
2022-10-12T14:01:22.481Z,22.17
2022-10-12T14:03:50.315Z,18.33
2022-10-12T14:06:29.645Z,20.27
2022-10-12T14:08:58.900Z,11.60
2022-10-12T14:11:27.574Z,15.57
2022-10-12T14:13:57.807Z,16.60
2022-10-12T14:16:25.655Z,15.20
2022-10-12T14:18:53.473Z,16.97
2022-10-12T14:21:23.927Z,15.33
2022-10-12T14:23:54.024Z,8.13
2022-10-12T14:26:28.991Z,13.70
2022-10-12T14:28:59.345Z,12.23
2022-10-12T14:31:52.069Z,16.07
2022-10-12T14:34:37.839Z,20.83
2022-10-12T14:37:20.443Z,11.37
2022-10-12T14:39:50.046Z,10.17
2022-10-12T14:42:21.356Z,11.87
2022-10-12T14:44:50.637Z,9.83
2022-10-12T14:47:22.663Z,11.67
2022-10-12T14:49:53.590Z,10.57
2022-10-12T14:52:24.027Z,10.20
2022-10-12T14:54:52.533Z,9.83
2022-10-12T14:57:21.427Z,13.13
2022-10-12T14:59:51.056Z,12.17
2022-10-12T15:02:21.378Z,13.87
2022-10-12T15:04:49.588Z,12.07
2022-10-12T15:07:19.753Z,12.27
2022-10-12T15:09:48.122Z,13.77
2022-10-12T15:12:17.130Z,11.67
2022-10-12T15:14:45.746Z,13.93
2022-10-12T15:17:16.026Z,12.97
2022-10-12T15:19:44.628Z,14.07
2022-10-12T15:22:16.043Z,11.53
2022-10-12T15:24:44.335Z,21.53
2022-10-12T15:27:12.724Z,17.23
2022-10-12T15:29:41.127Z,19.23
2022-10-12T15:32:11.428Z,14.83
2022-10-12T15:34:41.025Z,15.97
2022-10-12T15:37:09.550Z,14.30
2022-10-12T15:39:37.714Z,14.73
2022-10-12T15:42:06.003Z,16.63
2022-10-12T15:44:40.363Z,15.67
2022-10-12T15:47:09.981Z,15.63
2022-10-12T15:49:38.487Z,17.67
2022-10-12T15:52:08.079Z,14.40
2022-10-12T15:54:36.172Z,15.93
2022-10-12T15:57:04.319Z,19.70
2022-10-12T15:59:32.641Z,23.50
2022-10-12T16:02:00.785Z,16.13
2022-10-12T16:04:29.067Z,18.37
2022-10-12T16:07:01.149Z,14.43
2022-10-12T16:09:30.647Z,16.07
2022-10-12T16:11:58.804Z,20.53
2022-10-12T16:14:26.943Z,18.17
2022-10-12T16:16:55.087Z,15.17
2022-10-12T16:19:23.238Z,20.67
2022-10-12T16:21:51.400Z,17.57
2022-10-12T16:24:19.524Z,14.03
2022-10-12T16:26:49.864Z,20.57
2022-10-12T16:29:17.964Z,18.93
2022-10-12T16:31:46.105Z,17.97
2022-10-12T16:34:14.223Z,16.37
2022-10-12T16:36:42.332Z,16.87
2022-10-12T16:39:10.549Z,18.87
2022-10-12T16:41:38.640Z,21.70
2022-10-12T16:44:08.217Z,20.23
2022-10-12T16:46:36.965Z,26.20
2022-10-12T16:49:05.120Z,20.80
2022-10-12T16:51:33.249Z,17.70
2022-10-12T16:54:01.554Z,20.90
2022-10-12T16:56:29.787Z,22.80
2022-10-12T16:58:57.903Z,23.40
2022-10-12T17:01:27.344Z,19.00
2022-10-12T17:03:55.500Z,20.37
2022-10-12T17:06:23.596Z,18.33
2022-10-12T17:08:51.713Z,22.63
2022-10-12T17:11:21.191Z,16.90
2022-10-12T17:13:49.559Z,19.47
2022-10-12T17:16:36.470Z,18.60
2022-10-12T17:19:05.953Z,20.70
2022-10-12T17:21:34.522Z,19.93
2022-10-12T17:24:03.037Z,15.23
2022-10-12T17:26:31.176Z,22.97
2022-10-12T17:28:59.357Z,18.73
2022-10-12T17:31:28.595Z,19.53
2022-10-12T17:33:56.749Z,18.90
2022-10-12T17:36:28.387Z,18.27
2022-10-12T17:38:57.068Z,18.40
2022-10-12T17:41:25.414Z,17.40
2022-10-12T17:43:53.578Z,20.47
2022-10-12T17:46:22.848Z,23.63
2022-10-12T17:48:51.491Z,26.40
2022-10-12T17:51:19.693Z,24.37
2022-10-12T17:53:49.485Z,18.70
2022-10-12T17:56:17.600Z,22.27
2022-10-12T17:58:45.723Z,20.07
2022-10-12T18:01:15.138Z,16.67
2022-10-12T18:03:46.205Z,21.90
2022-10-12T18:06:16.693Z,17.97
2022-10-12T18:08:45.224Z,19.90
2022-10-12T18:11:14.879Z,21.40
2022-10-12T18:13:46.456Z,16.13
2022-10-12T18:16:14.665Z,18.27
2022-10-12T18:18:42.818Z,18.70
2022-10-12T18:21:12.789Z,17.47
2022-10-12T18:23:41.088Z,17.40
2022-10-12T18:26:10.070Z,20.37
2022-10-12T18:28:39.617Z,17.83
2022-10-12T18:31:08.182Z,18.63
2022-10-12T18:33:36.368Z,18.10
2022-10-12T18:36:05.159Z,20.40
2022-10-12T18:38:33.290Z,18.33
2022-10-12T18:41:04.865Z,21.53
2022-10-12T18:43:32.974Z,19.40
2022-10-12T18:46:05.754Z,19.77
2022-10-12T18:48:33.838Z,18.13
2022-10-12T18:51:05.103Z,17.13
2022-10-12T18:53:33.579Z,16.87
2022-10-12T18:56:03.085Z,16.60
2022-10-12T18:58:31.214Z,16.97
2022-10-12T19:00:59.672Z,18.93
2022-10-12T19:03:29.150Z,19.03
2022-10-12T19:06:04.370Z,16.93
2022-10-12T19:08:32.583Z,16.90
2022-10-12T19:11:00.679Z,21.17
2022-10-12T19:13:28.768Z,23.10
2022-10-12T19:15:56.863Z,17.50
2022-10-12T19:18:24.938Z,18.30
2022-10-12T19:20:54.363Z,17.57
2022-10-12T19:23:22.434Z,16.70
2022-10-12T19:25:50.556Z,20.03
2022-10-12T19:28:18.721Z,20.17
2022-10-12T19:30:46.938Z,19.37
2022-10-12T19:33:15.045Z,23.40
2022-10-12T19:35:43.139Z,16.23
2022-10-12T19:38:12.630Z,24.40
2022-10-12T19:40:40.706Z,17.93
2022-10-12T19:43:09.061Z,21.57
2022-10-12T19:45:40.803Z,21.03
2022-10-12T19:48:09.180Z,22.23
2022-10-12T19:50:37.667Z,15.97
2022-10-12T19:53:05.886Z,16.63
2022-10-12T19:55:38.822Z,15.87
2022-10-12T19:58:07.288Z,20.27
2022-10-12T20:00:35.848Z,15.57
2022-10-12T20:03:04.458Z,19.73
2022-10-12T20:05:32.598Z,16.40
2022-10-12T20:08:00.714Z,16.07
2022-10-12T20:10:28.784Z,21.00
2022-10-12T20:12:58.232Z,16.50
2022-10-12T20:15:26.311Z,16.83
2022-10-12T20:17:54.396Z,19.47
2022-10-12T20:20:22.555Z,17.20
2022-10-12T20:22:50.652Z,17.20
2022-10-12T20:25:18.915Z,15.80
2022-10-12T20:27:47.064Z,16.17
2022-10-12T20:30:16.671Z,18.33
2022-10-12T20:32:44.791Z,18.37
2022-10-12T20:35:12.887Z,15.40
2022-10-12T20:37:40.974Z,14.70
2022-10-12T20:40:09.650Z,16.77
2022-10-12T20:42:37.756Z,18.33
2022-10-12T20:45:06.211Z,16.63
2022-10-12T20:47:35.665Z,14.03
2022-10-12T20:50:04.043Z,17.40
2022-10-12T20:52:32.142Z,16.03
2022-10-12T20:55:00.286Z,18.83
2022-10-12T20:57:28.369Z,16.47
2022-10-12T20:59:56.484Z,17.37
2022-10-12T21:02:24.827Z,12.50
2022-10-12T21:04:54.451Z,14.57
2022-10-12T21:07:23.070Z,13.97
2022-10-12T21:09:52.305Z,14.97
2022-10-12T21:12:20.757Z,14.50
2022-10-12T21:14:49.226Z,12.23
2022-10-12T21:17:17.445Z,14.87
2022-10-12T21:19:45.547Z,14.77
2022-10-12T21:22:14.989Z,15.30
2022-10-12T21:24:43.115Z,15.57
2022-10-12T21:27:11.212Z,17.53
2022-10-12T21:29:39.386Z,13.87
2022-10-12T21:32:07.512Z,14.23
2022-10-12T21:34:35.623Z,12.13
2022-10-12T21:37:03.739Z,16.00
2022-10-12T21:39:33.199Z,13.83
2022-10-12T21:42:01.307Z,11.53
2022-10-12T21:44:29.419Z,14.87
2022-10-12T21:46:57.704Z,17.00
2022-10-12T21:49:25.935Z,12.47
2022-10-12T21:51:54.533Z,14.40
2022-10-12T21:54:22.621Z,15.63
2022-10-12T21:56:52.064Z,14.97
2022-10-12T21:59:20.200Z,16.17
2022-10-12T22:01:48.439Z,12.23
2022-10-12T22:04:16.954Z,13.73
2022-10-12T22:06:45.211Z,12.50
2022-10-12T22:09:16.437Z,12.03
2022-10-12T22:11:45.129Z,10.00
2022-10-12T22:14:15.844Z,12.53
2022-10-12T22:16:44.200Z,11.87
2022-10-12T22:19:15.006Z,12.30
2022-10-12T22:21:43.284Z,14.13
2022-10-12T22:24:11.435Z,11.33
2022-10-12T22:26:39.591Z,18.23
2022-10-12T22:29:08.532Z,13.67
2022-10-12T22:31:38.347Z,15.43
2022-10-12T22:34:06.868Z,8.97
2022-10-12T22:36:35.097Z,16.17
2022-10-12T22:39:03.454Z,12.87
2022-10-12T22:41:31.635Z,12.63
2022-10-12T22:43:59.754Z,12.77
2022-10-12T22:46:27.937Z,10.17
2022-10-12T22:48:57.376Z,11.97
2022-10-12T22:51:30.911Z,13.27
2022-10-12T22:53:59.246Z,13.03
2022-10-12T22:56:27.459Z,14.00
2022-10-12T22:58:55.771Z,10.60
2022-10-12T23:01:24.272Z,15.50
2022-10-12T23:03:52.440Z,10.33
2022-10-12T23:06:21.881Z,11.00
2022-10-12T23:08:50.041Z,13.70
2022-10-12T23:11:19.317Z,12.87
2022-10-12T23:13:48.083Z,9.13
2022-10-12T23:16:17.489Z,15.50
2022-10-12T23:18:45.580Z,14.13
2022-10-12T23:21:14.448Z,14.40
2022-10-12T23:23:44.383Z,13.47
2022-10-12T23:26:14.507Z,12.70
2022-10-12T23:28:42.940Z,16.97
2022-10-12T23:31:12.046Z,13.33
2022-10-12T23:33:40.774Z,19.60
2022-10-12T23:36:10.353Z,20.87
2022-10-12T23:38:39.539Z,14.07
2022-10-12T23:41:09.295Z,16.50
2022-10-12T23:43:37.608Z,14.30
2022-10-12T23:46:06.085Z,17.57
2022-10-12T23:51:20.572Z,18.77
2022-10-12T23:53:48.683Z,15.27
2022-10-12T23:56:18.229Z,17.40
2022-10-12T23:58:46.310Z,15.93
